^^
Saratoga-Weather Station Historical Data
Daily Summary for August 1, 2020 Units:  Both    English   Metric
Daily Weekly Monthly Yearly Custom
  High: Low: Average:
Temperature: 68.5 °F /  20.3 °C 32 °F /   °C 60.8 °F /  16 °C
Dew Point: 56.5 °F /  13.6 °C 32 °F /   °C 54.3 °F /  12.4 °C
Humidity: 92% % 80%
Wind Speed: 9mph /  14.5km/h - 2mph /  3.2km/h
Wind Gust: 10mph /  16.1km/h - -
Wind- - SW
Pressure: 30.1 in /  1017.6 hPa 30 in /  1014.9 hPa -
Precipitation: 0.09 in /  2.3 mm    
Historical Graphs
 
 
Tabular Data for August 1, 2020
Time Temperature Dew Point Pressure Wind Wind Speed Wind Gust Humidity Rainfall Rate (Hourly) solar
00:03 59.9 °F /  15.5 °C 54.1 °F /  12.3 °C 30in /  1017.3hPa NNW 2mph /  3.2km/h 2mph /  3.2km/h 81% 0in /  0.0mm 0 W/m2
00:08 59.7 °F /  15.4 °C 54 °F /  12.2 °C 30in /  1017.3hPa West 4mph /  6.4km/h 4mph /  6.4km/h 81% 0in /  0.0mm 0 W/m2
00:13 59.7 °F /  15.4 °C 54 °F /  12.2 °C 30.1in /  1017.6hPa WNW 2mph /  3.2km/h 3mph /  4.8km/h 81% 0in /  0.0mm 0 W/m2
00:18 59.7 °F /  15.4 °C 54 °F /  12.2 °C 30in /  1017.3hPa WNW 0.9mph /  1.4km/h 2mph /  3.2km/h 81% 0in /  0.0mm 0 W/m2
00:23 59.7 °F /  15.4 °C 54 °F /  12.2 °C 30in /  1017.3hPa WNW 4mph /  6.4km/h 8mph /  12.9km/h 81% 0in /  0.0mm 0 W/m2
00:28 59.5 °F /  15.3 °C 53.8 °F /  12.1 °C 30in /  1017.3hPa North 2mph /  3.2km/h 4mph /  6.4km/h 81% 0in /  0.0mm 0 W/m2
00:33 59.5 °F /  15.3 °C 53.8 °F /  12.1 °C 30in /  1017.3hPa WNW 2mph /  3.2km/h 8mph /  12.9km/h 81% 0in /  0.0mm 0 W/m2
00:38 59.5 °F /  15.3 °C 53.8 °F /  12.1 °C 30in /  1017.3hPa North 0.9mph /  1.4km/h 4mph /  6.4km/h 81% 0in /  0.0mm 0 W/m2
00:43 59.4 °F /  15.2 °C 53.2 °F /  11.8 °C 30in /  1017.3hPa East 0.9mph /  1.4km/h 4mph /  6.4km/h 80% 0in /  0.0mm 0 W/m2
00:48 59.4 °F /  15.2 °C 53.2 °F /  11.8 °C 30in /  1017.3hPa WSW 2.9mph /  4.7km/h 6mph /  9.7km/h 80% 0in /  0.0mm 0 W/m2
00:53 59.4 °F /  15.2 °C 53.2 °F /  11.8 °C 30in /  1017.3hPa Calm   3mph /  4.8km/h 80% 0in /  0.0mm 0 W/m2
00:58 59.2 °F /  15.1 °C 53.4 °F /  11.9 °C 30in /  1017.3hPa NW 2mph /  3.2km/h 5mph /  8km/h 81% 0in /  0.0mm 0 W/m2
01:03 59 °F /  15 °C 53.2 °F /  11.8 °C 30in /  1017.3hPa NNW 2mph /  3.2km/h 4mph /  6.4km/h 81% 0in /  0.0mm 0 W/m2
01:08 58.8 °F /  14.9 °C 53.1 °F /  11.7 °C 30in /  1017.3hPa WNW 2.9mph /  4.7km/h 7mph /  11.3km/h 81% 0in /  0.0mm 0 W/m2
01:13 58.8 °F /  14.9 °C 53.1 °F /  11.7 °C 30in /  1017.3hPa West 0.9mph /  1.4km/h 4mph /  6.4km/h 81% 0in /  0.0mm 0 W/m2
01:18 58.6 °F /  14.8 °C 52.9 °F /  11.6 °C 30in /  1017.3hPa WNW 2mph /  3.2km/h 9mph /  14.5km/h 81% 0in /  0.0mm 0 W/m2
01:23 58.6 °F /  14.8 °C 52.9 °F /  11.6 °C 30in /  1017.3hPa NNW 2.9mph /  4.7km/h 4mph /  6.4km/h 81% 0in /  0.0mm 0 W/m2
01:28 58.6 °F /  14.8 °C 52.9 °F /  11.6 °C 30in /  1017.3hPa West 2mph /  3.2km/h 9mph /  14.5km/h 81% 0in /  0.0mm 0 W/m2
01:33 58.6 °F /  14.8 °C 52.9 °F /  11.6 °C 30in /  1017.3hPa NW 2mph /  3.2km/h 2mph /  3.2km/h 81% 0in /  0.0mm 0 W/m2
01:38 58.6 °F /  14.8 °C 53.2 °F /  11.8 °C 30in /  1017.3hPa ESE 0.9mph /  1.4km/h 3mph /  4.8km/h 82% 0in /  0.0mm 0 W/m2
01:43 58.5 °F /  14.7 °C 53.1 °F /  11.7 °C 30in /  1017.3hPa WNW 2mph /  3.2km/h 4mph /  6.4km/h 82% 0in /  0.0mm 0 W/m2
01:48 58.6 °F /  14.8 °C 53.2 °F /  11.8 °C 30in /  1017.3hPa NNW 2mph /  3.2km/h 5mph /  8km/h 82% 0in /  0.0mm 0 W/m2
01:53 58.5 °F /  14.7 °C 53.1 °F /  11.7 °C 30in /  1017.3hPa Calm   3mph /  4.8km/h 82% 0in /  0.0mm 0 W/m2
01:58 58.5 °F /  14.7 °C 53.1 °F /  11.7 °C 30in /  1017.3hPa North 0.9mph /  1.4km/h 3mph /  4.8km/h 82% 0in /  0.0mm 0 W/m2
02:03 58.5 °F /  14.7 °C 53.1 °F /  11.7 °C 30in /  1017.3hPa WNW 2mph /  3.2km/h 4mph /  6.4km/h 82% 0in /  0.0mm 0 W/m2
02:08 58.5 °F /  14.7 °C 53.1 °F /  11.7 °C 30in /  1017.3hPa WNW 0.9mph /  1.4km/h 3mph /  4.8km/h 82% 0in /  0.0mm 0 W/m2
02:13 58.5 °F /  14.7 °C 52.7 °F /  11.5 °C 30in /  1017.3hPa WNW 2.9mph /  4.7km/h 4mph /  6.4km/h 81% 0in /  0.0mm 0 W/m2
02:18 58.5 °F /  14.7 °C 53.1 °F /  11.7 °C 30in /  1017.3hPa North 2mph /  3.2km/h 5mph /  8km/h 82% 0in /  0.0mm 0 W/m2
02:23 58.3 °F /  14.6 °C 52.5 °F /  11.4 °C 30in /  1017.3hPa West 4mph /  6.4km/h 5mph /  8km/h 81% 0in /  0.0mm 0 W/m2
02:28 58.3 °F /  14.6 °C 52.9 °F /  11.6 °C 30in /  1017.3hPa NW 2mph /  3.2km/h 3mph /  4.8km/h 82% 0in /  0.0mm 0 W/m2
02:33 57.9 °F /  14.4 °C 52.5 °F /  11.4 °C 30in /  1016.9hPa North 0.9mph /  1.4km/h 5mph /  8km/h 82% 0in /  0.0mm 0 W/m2
02:38 57.9 °F /  14.4 °C 52.5 °F /  11.4 °C 30in /  1017.3hPa West 2mph /  3.2km/h 4mph /  6.4km/h 82% 0in /  0.0mm 0 W/m2
02:43 57.7 °F /  14.3 °C 52.7 °F /  11.5 °C 30in /  1016.9hPa NW 0.9mph /  1.4km/h 5mph /  8km/h 83% 0in /  0.0mm 0 W/m2
02:48 57.6 °F /  14.2 °C 52.5 °F /  11.4 °C 30in /  1016.9hPa NW 2.9mph /  4.7km/h 3mph /  4.8km/h 83% 0in /  0.0mm 0 W/m2
02:53 57.6 °F /  14.2 °C 52.7 °F /  11.5 °C 30in /  1016.9hPa WNW 2.9mph /  4.7km/h 7mph /  11.3km/h 84% 0in /  0.0mm 0 W/m2
02:58 57.6 °F /  14.2 °C 52.7 °F /  11.5 °C 30in /  1016.9hPa WSW 2.9mph /  4.7km/h 3mph /  4.8km/h 84% 0in /  0.0mm 0 W/m2
03:03 57.6 °F /  14.2 °C 52.7 °F /  11.5 °C 30in /  1016.9hPa West 2mph /  3.2km/h 7mph /  11.3km/h 84% 0in /  0.0mm 0 W/m2
03:08 57.6 °F /  14.2 °C 52.7 °F /  11.5 °C 30in /  1016.9hPa NW 0.9mph /  1.4km/h 5mph /  8km/h 84% 0in /  0.0mm 0 W/m2
03:13 57.6 °F /  14.2 °C 52.7 °F /  11.5 °C 30in /  1016.9hPa NW 0.9mph /  1.4km/h 2mph /  3.2km/h 84% 0in /  0.0mm 0 W/m2
03:18 57.6 °F /  14.2 °C 52.7 °F /  11.5 °C 30in /  1016.9hPa WNW 0.9mph /  1.4km/h 5mph /  8km/h 84% 0in /  0.0mm 0 W/m2
03:23 57.6 °F /  14.2 °C 52.7 °F /  11.5 °C 30in /  1016.9hPa NNW 2mph /  3.2km/h 3mph /  4.8km/h 84% 0in /  0.0mm 0 W/m2
03:28 57.6 °F /  14.2 °C 52.7 °F /  11.5 °C 30in /  1016.9hPa West 2mph /  3.2km/h 3mph /  4.8km/h 84% 0in /  0.0mm 0 W/m2
03:33 57.6 °F /  14.2 °C 53.1 °F /  11.7 °C 30in /  1016.9hPa NW 0.9mph /  1.4km/h 4mph /  6.4km/h 85% 0in /  0.0mm 0 W/m2
03:38 57.4 °F /  14.1 °C 52.9 °F /  11.6 °C 30in /  1016.9hPa North 2.9mph /  4.7km/h 3mph /  4.8km/h 85% 0in /  0.0mm 0 W/m2
03:44 57.4 °F /  14.1 °C 52.9 °F /  11.6 °C 30in /  1016.9hPa North 2mph /  3.2km/h 4mph /  6.4km/h 85% 0in /  0.0mm 0 W/m2
03:49 57.4 °F /  14.1 °C 52.9 °F /  11.6 °C 30in /  1016.9hPa Calm   1mph /  1.6km/h 85% 0in /  0.0mm 0 W/m2
03:54 57.4 °F /  14.1 °C 52.9 °F /  11.6 °C 30in /  1016.9hPa West 2mph /  3.2km/h 3mph /  4.8km/h 85% 0in /  0.0mm 0 W/m2
03:59 57.4 °F /  14.1 °C 52.9 °F /  11.6 °C 30in /  1016.9hPa West 2mph /  3.2km/h 3mph /  4.8km/h 85% 0in /  0.0mm 0 W/m2
04:04 57.2 °F /  14 °C 52.7 °F /  11.5 °C 30in /  1016.9hPa WNW 2mph /  3.2km/h 2mph /  3.2km/h 85% 0in /  0.0mm 0 W/m2
04:09 57.2 °F /  14 °C 53.1 °F /  11.7 °C 30in /  1016.9hPa Calm   2mph /  3.2km/h 86% 0in /  0.0mm 0 W/m2
04:14 57.2 °F /  14 °C 53.1 °F /  11.7 °C 30in /  1016.9hPa WNW 2.9mph /  4.7km/h 7mph /  11.3km/h 86% 0in /  0.0mm 0 W/m2
04:19 57 °F /  13.9 °C 52.9 °F /  11.6 °C 30in /  1016.9hPa West 2mph /  3.2km/h 3mph /  4.8km/h 86% 0in /  0.0mm 0 W/m2
04:24 57 °F /  13.9 °C 52.9 °F /  11.6 °C 30in /  1016.9hPa WNW 2mph /  3.2km/h 6mph /  9.7km/h 86% 0in /  0.0mm 0 W/m2
04:29 57 °F /  13.9 °C 52.9 °F /  11.6 °C 30in /  1016.9hPa NW 0.9mph /  1.4km/h 2mph /  3.2km/h 86% 0in /  0.0mm 0 W/m2
04:34 57 °F /  13.9 °C 52.9 °F /  11.6 °C 30in /  1016.9hPa Calm   3mph /  4.8km/h 86% 0in /  0.0mm 0 W/m2
04:39 57 °F /  13.9 °C 52.9 °F /  11.6 °C 30in /  1016.9hPa WNW 0.9mph /  1.4km/h 2mph /  3.2km/h 86% 0in /  0.0mm 0 W/m2
04:44 57 °F /  13.9 °C 52.9 °F /  11.6 °C 30in /  1016.9hPa WNW 2.9mph /  4.7km/h 4mph /  6.4km/h 86% 0in /  0.0mm 0 W/m2
04:49 57 °F /  13.9 °C 52.9 °F /  11.6 °C 30in /  1016.9hPa NW 0.9mph /  1.4km/h 3mph /  4.8km/h 86% 0in /  0.0mm 0 W/m2
04:55 57 °F /  13.9 °C 52.9 °F /  11.6 °C 30in /  1016.9hPa West 0.9mph /  1.4km/h 3mph /  4.8km/h 86% 0in /  0.0mm 0 W/m2
05:03 57 °F /  13.9 °C 52.9 °F /  11.6 °C 30in /  1016.6hPa NNW 0.9mph /  1.4km/h 3mph /  4.8km/h 86% 0in /  0.0mm 0 W/m2
05:08 57 °F /  13.9 °C 52.9 °F /  11.6 °C 30in /  1016.6hPa Calm   4mph /  6.4km/h 86% 0in /  0.0mm 0 W/m2
05:13 57 °F /  13.9 °C 53.2 °F /  11.8 °C 30in /  1016.6hPa West 4mph /  6.4km/h 4mph /  6.4km/h 87% 0in /  0.0mm 0 W/m2
05:18 57 °F /  13.9 °C 53.2 °F /  11.8 °C 30in /  1016.6hPa WNW 2mph /  3.2km/h 3mph /  4.8km/h 87% 0in /  0.0mm 0 W/m2
05:23 56.8 °F /  13.8 °C 53.1 °F /  11.7 °C 30in /  1016.6hPa NNE 0.9mph /  1.4km/h 4mph /  6.4km/h 87% 0in /  0.0mm 0 W/m2
05:28 56.8 °F /  13.8 °C 53.1 °F /  11.7 °C 30in /  1016.6hPa NW 0.9mph /  1.4km/h 3mph /  4.8km/h 87% 0in /  0.0mm 0 W/m2
05:34 56.8 °F /  13.8 °C 53.1 °F /  11.7 °C 30in /  1016.6hPa NNW 0.9mph /  1.4km/h 4mph /  6.4km/h 87% 0in /  0.0mm 0 W/m2
05:39 56.8 °F /  13.8 °C 53.1 °F /  11.7 °C 30in /  1016.6hPa NW 0.9mph /  1.4km/h 3mph /  4.8km/h 87% 0in /  0.0mm 0 W/m2
05:44 56.8 °F /  13.8 °C 53.1 °F /  11.7 °C 30in /  1016.6hPa WNW 2mph /  3.2km/h 2mph /  3.2km/h 87% 0in /  0.0mm 0 W/m2
05:49 56.8 °F /  13.8 °C 53.1 °F /  11.7 °C 30in /  1016.6hPa NE 2mph /  3.2km/h 3mph /  4.8km/h 87% 0in /  0.0mm 0 W/m2
05:54 56.8 °F /  13.8 °C 53.1 °F /  11.7 °C 30in /  1016.6hPa Calm   2mph /  3.2km/h 87% 0in /  0.0mm 0 W/m2
05:59 56.8 °F /  13.8 °C 53.1 °F /  11.7 °C 30in /  1016.3hPa ENE 4mph /  6.4km/h 5mph /  8km/h 87% 0in /  0.0mm 0 W/m2
06:04 56.8 °F /  13.8 °C 53.1 °F /  11.7 °C 30in /  1016.6hPa NNW 0.9mph /  1.4km/h 3mph /  4.8km/h 87% 0in /  0.0mm 0 W/m2
06:09 56.8 °F /  13.8 °C 53.1 °F /  11.7 °C 30in /  1016.6hPa Calm   1mph /  1.6km/h 87% 0in /  0.0mm 0 W/m2
06:14 56.8 °F /  13.8 °C 53.1 °F /  11.7 °C 30in /  1016.6hPa Calm   1mph /  1.6km/h 87% 0in /  0.0mm 0 W/m2
06:19 56.8 °F /  13.8 °C 53.1 °F /  11.7 °C 30in /  1016.6hPa West 0.9mph /  1.4km/h 2mph /  3.2km/h 87% 0in /  0.0mm 0 W/m2
06:24 56.7 °F /  13.7 °C 53.1 °F /  11.7 °C 30in /  1016.6hPa Calm   2mph /  3.2km/h 88% 0in /  0.0mm 0 W/m2
06:29 56.7 °F /  13.7 °C 53.1 °F /  11.7 °C 30in /  1016.6hPa Calm   2mph /  3.2km/h 88% 0in /  0.0mm 0 W/m2
06:34 56.7 °F /  13.7 °C 53.1 °F /  11.7 °C 30in /  1016.6hPa Calm   4mph /  6.4km/h 88% 0in /  0.0mm 0 W/m2
06:39 56.7 °F /  13.7 °C 53.1 °F /  11.7 °C 30in /  1016.3hPa ENE 0.9mph /  1.4km/h 2mph /  3.2km/h 88% 0in /  0.0mm 0 W/m2
06:44 56.7 °F /  13.7 °C 53.1 °F /  11.7 °C 30in /  1016.6hPa Calm   4mph /  6.4km/h 88% 0in /  0.0mm 0 W/m2
06:49 56.7 °F /  13.7 °C 53.1 °F /  11.7 °C 30in /  1016.6hPa Calm   1mph /  1.6km/h 88% 0in /  0.0mm 0 W/m2
06:54 56.7 °F /  13.7 °C 53.1 °F /  11.7 °C 30in /  1016.6hPa Calm   2mph /  3.2km/h 88% 0in /  0.0mm 0 W/m2
06:59 56.7 °F /  13.7 °C 53.1 °F /  11.7 °C 30in /  1016.6hPa Calm   1mph /  1.6km/h 88% 0in /  0.0mm 7 W/m2
07:04 56.7 °F /  13.7 °C 53.1 °F /  11.7 °C 30in /  1016.6hPa NNE 2mph /  3.2km/h 3mph /  4.8km/h 88% 0in /  0.0mm 11 W/m2
07:09 56.5 °F /  13.6 °C 52.9 °F /  11.6 °C 30in /  1016.6hPa North 0.9mph /  1.4km/h 2mph /  3.2km/h 88% 0in /  0.0mm 16 W/m2
07:14 56.5 °F /  13.6 °C 52.9 °F /  11.6 °C 30in /  1016.6hPa Calm   3mph /  4.8km/h 88% 0in /  0.0mm 21 W/m2
07:19 56.5 °F /  13.6 °C 52.9 °F /  11.6 °C 30in /  1016.6hPa NNE 0.9mph /  1.4km/h 6mph /  9.7km/h 88% 0in /  0.0mm 25 W/m2
07:24 56.5 °F /  13.6 °C 52.9 °F /  11.6 °C 30in /  1016.6hPa WNW 2mph /  3.2km/h 2mph /  3.2km/h 88% 0in /  0.0mm 26 W/m2
07:29 56.5 °F /  13.6 °C 52.9 °F /  11.6 °C 30in /  1016.6hPa North 0.9mph /  1.4km/h 4mph /  6.4km/h 88% 0in /  0.0mm 28 W/m2
07:34 56.5 °F /  13.6 °C 52.9 °F /  11.6 °C 30in /  1016.9hPa ENE 0.9mph /  1.4km/h 1mph /  1.6km/h 88% 0in /  0.0mm 32 W/m2
07:39 56.7 °F /  13.7 °C 53.1 °F /  11.7 °C 30in /  1016.9hPa Calm   1mph /  1.6km/h 88% 0in /  0.0mm 37 W/m2
07:44 56.7 °F /  13.7 °C 53.1 °F /  11.7 °C 30in /  1016.9hPa WSW 0.9mph /  1.4km/h 3mph /  4.8km/h 88% 0in /  0.0mm 37 W/m2
07:49 56.7 °F /  13.7 °C 53.1 °F /  11.7 °C 30in /  1016.9hPa NNE 2mph /  3.2km/h 2mph /  3.2km/h 88% 0in /  0.0mm 33 W/m2
07:54 56.8 °F /  13.8 °C 53.2 °F /  11.8 °C 30in /  1016.9hPa ENE 2mph /  3.2km/h 2mph /  3.2km/h 88% 0in /  0.0mm 33 W/m2
07:59 56.8 °F /  13.8 °C 53.2 °F /  11.8 °C 30in /  1016.9hPa SSE 0.9mph /  1.4km/h 1mph /  1.6km/h 88% 0in /  0.0mm 33 W/m2
08:05 56.8 °F /  13.8 °C 53.2 °F /  11.8 °C 30in /  1016.9hPa NW 0.9mph /  1.4km/h 5mph /  8km/h 88% 0in /  0.0mm 37 W/m2
08:10 57 °F /  13.9 °C 53.4 °F /  11.9 °C 30in /  1016.9hPa Calm   3mph /  4.8km/h 88% 0in /  0.0mm 46 W/m2
08:15 57 °F /  13.9 °C 53.4 °F /  11.9 °C 30in /  1016.9hPa Calm   1mph /  1.6km/h 88% 0in /  0.0mm 56 W/m2
08:20 57.2 °F /  14 °C 53.6 °F /  12 °C 30in /  1016.9hPa East 2mph /  3.2km/h 2mph /  3.2km/h 88% 0in /  0.0mm 63 W/m2
08:25 57.4 °F /  14.1 °C 53.8 °F /  12.1 °C 30in /  1016.9hPa NNW 2mph /  3.2km/h 3mph /  4.8km/h 88% 0in /  0.0mm 67 W/m2
08:30 57.4 °F /  14.1 °C 53.8 °F /  12.1 °C 30in /  1016.9hPa West 2mph /  3.2km/h 3mph /  4.8km/h 88% 0in /  0.0mm 72 W/m2
08:35 57.4 °F /  14.1 °C 53.8 °F /  12.1 °C 30in /  1016.9hPa NNW 4mph /  6.4km/h 4mph /  6.4km/h 88% 0in /  0.0mm 72 W/m2
08:40 57.6 °F /  14.2 °C 53.8 °F /  12.1 °C 30in /  1016.9hPa ENE 2mph /  3.2km/h 4mph /  6.4km/h 87% 0in /  0.0mm 77 W/m2
08:45 57.6 °F /  14.2 °C 53.8 °F /  12.1 °C 30in /  1016.9hPa North 2mph /  3.2km/h 3mph /  4.8km/h 87% 0in /  0.0mm 84 W/m2
08:50 57.6 °F /  14.2 °C 53.8 °F /  12.1 °C 30in /  1016.9hPa West 2mph /  3.2km/h 3mph /  4.8km/h 87% 0in /  0.0mm 95 W/m2
08:55 57.7 °F /  14.3 °C 54 °F /  12.2 °C 30in /  1016.9hPa NNW 2mph /  3.2km/h 2mph /  3.2km/h 87% 0in /  0.0mm 102 W/m2
09:00 57.7 °F /  14.3 °C 54 °F /  12.2 °C 30in /  1017.3hPa ENE 2.9mph /  4.7km/h 3mph /  4.8km/h 87% 0in /  0.0mm 104 W/m2
09:05 57.9 °F /  14.4 °C 54.1 °F /  12.3 °C 30in /  1017.3hPa SW 2mph /  3.2km/h 3mph /  4.8km/h 87% 0in /  0.0mm 114 W/m2
09:10 57.9 °F /  14.4 °C 54.1 °F /  12.3 °C 30in /  1017.3hPa West 2.9mph /  4.7km/h   87% 0in /  0.0mm 114 W/m2
09:15 32 °F /   °C 32 °F /   °C 30in /  1017.3hPa West 2.9mph /  4.7km/h   % 0in /  0.0mm W/m2
09:22 58.6 °F /  14.8 °C 54.1 °F /  12.3 °C 30in /  1017.3hPa WNW 0.9mph /  1.4km/h 4mph /  6.4km/h 85% 0in /  0.0mm 172 W/m2
09:27 58.8 °F /  14.9 °C 54.3 °F /  12.4 °C 30in /  1017.3hPa South 5mph /  8km/h 5mph /  8km/h 85% 0in /  0.0mm 192 W/m2
09:32 59.2 °F /  15.1 °C 54.3 °F /  12.4 °C 30in /  1017.3hPa NE 2mph /  3.2km/h 3mph /  4.8km/h 84% 0in /  0.0mm 195 W/m2
09:37 59.2 °F /  15.1 °C 54.3 °F /  12.4 °C 30in /  1017.3hPa NW 0.9mph /  1.4km/h 8mph /  12.9km/h 84% 0in /  0.0mm 199 W/m2
09:42 59.4 °F /  15.2 °C 54.5 °F /  12.5 °C 30in /  1016.9hPa North 2mph /  3.2km/h 2mph /  3.2km/h 84% 0in /  0.0mm 211 W/m2
09:47 59.5 °F /  15.3 °C 54.7 °F /  12.6 °C 30in /  1016.9hPa ENE 0.9mph /  1.4km/h 3mph /  4.8km/h 84% 0in /  0.0mm 220 W/m2
09:52 59.9 °F /  15.5 °C 55 °F /  12.8 °C 30in /  1016.9hPa Calm   1mph /  1.6km/h 84% 0in /  0.0mm 227 W/m2
09:57 60.3 °F /  15.7 °C 55 °F /  12.8 °C 30in /  1016.9hPa NNW 0.9mph /  1.4km/h 5mph /  8km/h 83% 0in /  0.0mm 221 W/m2
10:02 60.3 °F /  15.7 °C 54.7 °F /  12.6 °C 30in /  1016.9hPa ENE 4.9mph /  7.9km/h 5mph /  8km/h 82% 0in /  0.0mm 251 W/m2
10:07 60.3 °F /  15.7 °C 54.7 °F /  12.6 °C 30in /  1016.9hPa ESE 6mph /  9.7km/h 6mph /  9.7km/h 82% 0in /  0.0mm 227 W/m2
10:12 60.3 °F /  15.7 °C 54.7 °F /  12.6 °C 30in /  1016.9hPa NNE 2.9mph /  4.7km/h 3mph /  4.8km/h 82% 0in /  0.0mm 236 W/m2
10:17 60.4 °F /  15.8 °C 54.9 °F /  12.7 °C 30in /  1016.9hPa WNW 2mph /  3.2km/h 3mph /  4.8km/h 82% 0in /  0.0mm 244 W/m2
10:22 60.6 °F /  15.9 °C 54.7 °F /  12.6 °C 30in /  1016.9hPa West 2.9mph /  4.7km/h 3mph /  4.8km/h 81% 0in /  0.0mm 234 W/m2
10:27 60.6 °F /  15.9 °C 54.7 °F /  12.6 °C 30in /  1016.9hPa West 2mph /  3.2km/h 5mph /  8km/h 81% 0in /  0.0mm 236 W/m2
10:32 60.8 °F /  16 °C 55.2 °F /  12.9 °C 30in /  1016.9hPa NE 2mph /  3.2km/h 3mph /  4.8km/h 82% 0in /  0.0mm 232 W/m2
10:37 61.2 °F /  16.2 °C 55.2 °F /  12.9 °C 30in /  1016.9hPa NW 0.9mph /  1.4km/h 4mph /  6.4km/h 81% 0in /  0.0mm 251 W/m2
10:42 61.3 °F /  16.3 °C 55.4 °F /  13 °C 30in /  1016.9hPa ENE 2.9mph /  4.7km/h 4mph /  6.4km/h 81% 0in /  0.0mm 255 W/m2
10:47 61.9 °F /  16.6 °C 55.2 °F /  12.9 °C 30in /  1016.9hPa ESE 2mph /  3.2km/h 3mph /  4.8km/h 79% 0in /  0.0mm 236 W/m2
10:52 62.1 °F /  16.7 °C 55 °F /  12.8 °C 30in /  1016.9hPa ENE 2mph /  3.2km/h 3mph /  4.8km/h 78% 0in /  0.0mm 269 W/m2
10:57 62.1 °F /  16.7 °C 55 °F /  12.8 °C 30in /  1016.9hPa ENE 0.9mph /  1.4km/h 2mph /  3.2km/h 78% 0in /  0.0mm 246 W/m2
11:02 62.1 °F /  16.7 °C 55 °F /  12.8 °C 30in /  1016.9hPa WNW 0.9mph /  1.4km/h 2mph /  3.2km/h 78% 0in /  0.0mm 190 W/m2
11:07 62.2 °F /  16.8 °C 55.2 °F /  12.9 °C 30in /  1016.9hPa ENE 0.9mph /  1.4km/h 4mph /  6.4km/h 78% 0in /  0.0mm 229 W/m2
11:12 62.2 °F /  16.8 °C 54.9 °F /  12.7 °C 30in /  1016.9hPa North 0.9mph /  1.4km/h 4mph /  6.4km/h 77% 0in /  0.0mm 248 W/m2
11:17 62.2 °F /  16.8 °C 54.9 °F /  12.7 °C 30in /  1016.9hPa West 2mph /  3.2km/h 4mph /  6.4km/h 77% 0in /  0.0mm 214 W/m2
11:23 62.4 °F /  16.9 °C 55 °F /  12.8 °C 30in /  1016.9hPa East 2mph /  3.2km/h 3mph /  4.8km/h 77% 0in /  0.0mm 260 W/m2
11:28 62.6 °F /  17 °C 55.2 °F /  12.9 °C 30in /  1016.9hPa NNW 0.9mph /  1.4km/h 2mph /  3.2km/h 77% 0in /  0.0mm 246 W/m2
11:33 62.8 °F /  17.1 °C 55.8 °F /  13.2 °C 30in /  1016.9hPa Calm   4mph /  6.4km/h 78% 0in /  0.0mm 265 W/m2
11:38 63.1 °F /  17.3 °C 55.4 °F /  13 °C 30in /  1016.9hPa ESE 4mph /  6.4km/h 6mph /  9.7km/h 76% 0in /  0.0mm 232 W/m2
11:43 63.1 °F /  17.3 °C 55.4 °F /  13 °C 30in /  1016.6hPa SE 0.9mph /  1.4km/h 2mph /  3.2km/h 76% 0in /  0.0mm 223 W/m2
11:48 63.1 °F /  17.3 °C 55 °F /  12.8 °C 30in /  1016.9hPa Calm   3mph /  4.8km/h 75% 0in /  0.0mm 176 W/m2
11:53 63.1 °F /  17.3 °C 55 °F /  12.8 °C 30in /  1016.6hPa Calm   2mph /  3.2km/h 75% 0in /  0.0mm 216 W/m2
11:58 63.1 °F /  17.3 °C 55.4 °F /  13 °C 30in /  1016.9hPa Calm   2mph /  3.2km/h 76% 0in /  0.0mm 220 W/m2
12:03 63.3 °F /  17.4 °C 55.2 °F /  12.9 °C 30in /  1016.6hPa NE 2mph /  3.2km/h 7mph /  11.3km/h 75% 0in /  0.0mm 234 W/m2
12:08 63.7 °F /  17.6 °C 55.2 °F /  12.9 °C 30in /  1016.6hPa ESE 2.9mph /  4.7km/h 6mph /  9.7km/h 74% 0in /  0.0mm 197 W/m2
12:13 63.9 °F /  17.7 °C 55.8 °F /  13.2 °C 30in /  1016.6hPa West 0.9mph /  1.4km/h 7mph /  11.3km/h 75% 0in /  0.0mm 176 W/m2
12:18 63.7 °F /  17.6 °C 55.6 °F /  13.1 °C 30in /  1016.6hPa NNW 0.9mph /  1.4km/h 5mph /  8km/h 75% 0in /  0.0mm 167 W/m2
12:23 63.7 °F /  17.6 °C 55.6 °F /  13.1 °C 30in /  1016.6hPa NE 4mph /  6.4km/h 5mph /  8km/h 75% 0in /  0.0mm 156 W/m2
12:28 63.5 °F /  17.5 °C 55.4 °F /  13 °C 30in /  1016.6hPa WNW 2mph /  3.2km/h 5mph /  8km/h 75% 0in /  0.0mm 229 W/m2
12:33 63.7 °F /  17.6 °C 55.6 °F /  13.1 °C 30in /  1016.6hPa East 2mph /  3.2km/h 6mph /  9.7km/h 75% 0in /  0.0mm 214 W/m2
12:38 63.7 °F /  17.6 °C 55.9 °F /  13.3 °C 30in /  1016.6hPa NE 0.9mph /  1.4km/h 4mph /  6.4km/h 76% 0in /  0.0mm 279 W/m2
12:43 64.2 °F /  17.9 °C 55.8 °F /  13.2 °C 30in /  1016.6hPa NE 2mph /  3.2km/h 7mph /  11.3km/h 74% 0in /  0.0mm 649 W/m2
12:48 64.8 °F /  18.2 °C 55.9 °F /  13.3 °C 30in /  1016.6hPa North 2mph /  3.2km/h 4mph /  6.4km/h 73% 0in /  0.0mm 199 W/m2
12:53 64.6 °F /  18.1 °C 56.1 °F /  13.4 °C 30in /  1016.6hPa SW 2mph /  3.2km/h 4mph /  6.4km/h 74% 0in /  0.0mm 221 W/m2
12:58 64.8 °F /  18.2 °C 56.3 °F /  13.5 °C 30in /  1016.6hPa West 6mph /  9.7km/h 6mph /  9.7km/h 74% 0in /  0.0mm 680 W/m2
13:03 64.8 °F /  18.2 °C 55.9 °F /  13.3 °C 30in /  1016.6hPa West 8.1mph /  13km/h 8mph /  12.9km/h 73% 0in /  0.0mm 279 W/m2
13:08 64.4 °F /  18 °C 55.9 °F /  13.3 °C 30in /  1016.6hPa NW 6mph /  9.7km/h 7mph /  11.3km/h 74% 0in /  0.0mm 199 W/m2
13:13 64.2 °F /  17.9 °C 55.8 °F /  13.2 °C 30in /  1016.6hPa West 2mph /  3.2km/h 8mph /  12.9km/h 74% 0in /  0.0mm 197 W/m2
13:18 64.2 °F /  17.9 °C 55.8 °F /  13.2 °C 30in /  1016.6hPa SE 2mph /  3.2km/h 4mph /  6.4km/h 74% 0in /  0.0mm 234 W/m2
13:23 64 °F /  17.8 °C 55.6 °F /  13.1 °C 30in /  1016.6hPa WNW 0.9mph /  1.4km/h 8mph /  12.9km/h 74% 0in /  0.0mm 255 W/m2
13:28 64 °F /  17.8 °C 55.2 °F /  12.9 °C 30in /  1016.3hPa NNW 2mph /  3.2km/h 10mph /  16.1km/h 73% 0in /  0.0mm 336 W/m2
13:33 64.2 °F /  17.9 °C 55.8 °F /  13.2 °C 30in /  1016.3hPa NNW 4.9mph /  7.9km/h 8mph /  12.9km/h 74% 0in /  0.0mm 352 W/m2
13:38 64.4 °F /  18 °C 55.6 °F /  13.1 °C 30in /  1016.3hPa North 2mph /  3.2km/h 2mph /  3.2km/h 73% 0in /  0.0mm 278 W/m2
13:43 64.8 °F /  18.2 °C 55.9 °F /  13.3 °C 30in /  1016.3hPa North 2.9mph /  4.7km/h 8mph /  12.9km/h 73% 0in /  0.0mm 269 W/m2
13:48 64.9 °F /  18.3 °C 56.1 °F /  13.4 °C 30in /  1016.3hPa West 0.9mph /  1.4km/h 2mph /  3.2km/h 73% 0in /  0.0mm 322 W/m2
13:53 65.1 °F /  18.4 °C 55.9 °F /  13.3 °C 30in /  1016.3hPa Calm   7mph /  11.3km/h 72% 0in /  0.0mm 432 W/m2
13:58 65.5 °F /  18.6 °C 56.3 °F /  13.5 °C 30in /  1016.3hPa SW 2.9mph /  4.7km/h 6mph /  9.7km/h 72% 0in /  0.0mm 464 W/m2
14:03 65.7 °F /  18.7 °C 55.9 °F /  13.3 °C 30in /  1016.3hPa NW 2mph /  3.2km/h 7mph /  11.3km/h 71% 0in /  0.0mm 388 W/m2
14:08 65.8 °F /  18.8 °C 56.1 °F /  13.4 °C 30in /  1016.3hPa NW 0.9mph /  1.4km/h 4mph /  6.4km/h 71% 0in /  0.0mm 601 W/m2
14:13 66.2 °F /  19 °C 56.1 °F /  13.4 °C 30in /  1016.3hPa West 8.1mph /  13km/h 8mph /  12.9km/h 70% 0in /  0.0mm 445 W/m2
14:18 66.6 °F /  19.2 °C 56.1 °F /  13.4 °C 30in /  1016.3hPa West 6mph /  9.7km/h 7mph /  11.3km/h 69% 0in /  0.0mm 357 W/m2
14:23 66.2 °F /  19 °C 56.1 °F /  13.4 °C 30in /  1016.3hPa NNW 4.9mph /  7.9km/h 8mph /  12.9km/h 70% 0in /  0.0mm 689 W/m2
14:28 66.6 °F /  19.2 °C 56.1 °F /  13.4 °C 30in /  1016.3hPa NE 2.9mph /  4.7km/h 6mph /  9.7km/h 69% 0in /  0.0mm 250 W/m2
14:33 66.9 °F /  19.4 °C 55.9 °F /  13.3 °C 30in /  1016.3hPa North 4mph /  6.4km/h 8mph /  12.9km/h 68% 0in /  0.0mm 786 W/m2
14:38 67.3 °F /  19.6 °C 55.9 °F /  13.3 °C 30in /  1016.3hPa West 2.9mph /  4.7km/h 9mph /  14.5km/h 67% 0in /  0.0mm 835 W/m2
14:43 67.3 °F /  19.6 °C 55.9 °F /  13.3 °C 30in /  1016.3hPa West 4mph /  6.4km/h 6mph /  9.7km/h 67% 0in /  0.0mm 708 W/m2
14:48 67.5 °F /  19.7 °C 56.5 °F /  13.6 °C 30in /  1016.3hPa NE 2.9mph /  4.7km/h 9mph /  14.5km/h 68% 0in /  0.0mm 775 W/m2
14:53 67.8 °F /  19.9 °C 56.5 °F /  13.6 °C 30in /  1015.9hPa East 2.9mph /  4.7km/h 9mph /  14.5km/h 67% 0in /  0.0mm 770 W/m2
14:58 68.2 °F /  20.1 °C 55.9 °F /  13.3 °C 30in /  1015.9hPa West 6mph /  9.7km/h 7mph /  11.3km/h 65% 0in /  0.0mm 512 W/m2
15:03 68.2 °F /  20.1 °C 55.9 °F /  13.3 °C 30in /  1015.9hPa North 2.9mph /  4.7km/h 9mph /  14.5km/h 65% 0in /  0.0mm 211 W/m2
15:08 68 °F /  20 °C 55.8 °F /  13.2 °C 30in /  1015.9hPa East 6.9mph /  11.1km/h 7mph /  11.3km/h 65% 0in /  0.0mm 613 W/m2
15:13 68.2 °F /  20.1 °C 55.9 °F /  13.3 °C 30in /  1015.6hPa NNE 2mph /  3.2km/h 2mph /  3.2km/h 65% 0in /  0.0mm 468 W/m2
15:18 68.5 °F /  20.3 °C 55.9 °F /  13.3 °C 30in /  1015.6hPa NW 2mph /  3.2km/h 5mph /  8km/h 64% 0in /  0.0mm 332 W/m2
15:23 68 °F /  20 °C 55.4 °F /  13 °C 30in /  1015.6hPa ESE 2mph /  3.2km/h 4mph /  6.4km/h 64% 0in /  0.0mm 260 W/m2
15:28 67.8 °F /  19.9 °C 56.1 °F /  13.4 °C 30in /  1015.6hPa WNW 0.9mph /  1.4km/h 3mph /  4.8km/h 66% 0in /  0.0mm 204 W/m2
15:33 67.6 °F /  19.8 °C 55 °F /  12.8 °C 30in /  1015.6hPa ENE 4mph /  6.4km/h 7mph /  11.3km/h 64% 0in /  0.0mm 116 W/m2
15:38 67.5 °F /  19.7 °C 55.2 °F /  12.9 °C 30in /  1015.2hPa ESE 0.9mph /  1.4km/h 3mph /  4.8km/h 65% 0in /  0.0mm 107 W/m2
15:43 67.1 °F /  19.5 °C 54.5 °F /  12.5 °C 30in /  1015.2hPa NE 2mph /  3.2km/h 6mph /  9.7km/h 64% 0in /  0.0mm 107 W/m2
15:48 66.9 °F /  19.4 °C 54.9 °F /  12.7 °C 30in /  1015.6hPa East 0.9mph /  1.4km/h 5mph /  8km/h 65% 0in /  0.0mm 109 W/m2
15:53 66.7 °F /  19.3 °C 55 °F /  12.8 °C 30in /  1015.2hPa NW 0.9mph /  1.4km/h 3mph /  4.8km/h 66% 0in /  0.0mm 107 W/m2
15:59 66.6 °F /  19.2 °C 55.2 °F /  12.9 °C 30in /  1015.2hPa Calm   4mph /  6.4km/h 67% 0in /  0.0mm 118 W/m2
16:04 66.6 °F /  19.2 °C 55.2 °F /  12.9 °C 30in /  1015.2hPa North 0.9mph /  1.4km/h 3mph /  4.8km/h 67% 0in /  0.0mm 137 W/m2
16:09 66.6 °F /  19.2 °C 55.2 °F /  12.9 °C 30in /  1015.2hPa West 2mph /  3.2km/h 3mph /  4.8km/h 67% 0in /  0.0mm 162 W/m2
16:14 66.6 °F /  19.2 °C 55.6 °F /  13.1 °C 30in /  1015.2hPa WNW 8.1mph /  13km/h 8mph /  12.9km/h 68% 0in /  0.0mm 174 W/m2
16:19 66.4 °F /  19.1 °C 55.6 °F /  13.1 °C 30in /  1015.2hPa WNW 4.9mph /  7.9km/h 9mph /  14.5km/h 68% 0in /  0.0mm 185 W/m2
16:24 66.4 °F /  19.1 °C 55.9 °F /  13.3 °C 30in /  1015.2hPa WNW 4mph /  6.4km/h 6mph /  9.7km/h 69% 0in /  0.0mm 216 W/m2
16:29 66.4 °F /  19.1 °C 55.9 °F /  13.3 °C 30in /  1015.2hPa NNW 2.9mph /  4.7km/h 9mph /  14.5km/h 69% 0in /  0.0mm 225 W/m2
16:34 66.4 °F /  19.1 °C 55.9 °F /  13.3 °C 30in /  1015.2hPa NW 4.9mph /  7.9km/h 7mph /  11.3km/h 69% 0in /  0.0mm 229 W/m2
16:39 66.4 °F /  19.1 °C 55.9 °F /  13.3 °C 30in /  1015.2hPa North 9mph /  14.5km/h 9mph /  14.5km/h 69% 0in /  0.0mm 227 W/m2
16:44 66.9 °F /  19.4 °C 56.5 °F /  13.6 °C 30in /  1015.2hPa ENE 2mph /  3.2km/h 7mph /  11.3km/h 69% 0in /  0.0mm 610 W/m2
16:49 67.3 °F /  19.6 °C 55.9 °F /  13.3 °C 30in /  1015.2hPa NE 4.9mph /  7.9km/h 5mph /  8km/h 67% 0in /  0.0mm 220 W/m2
16:54 67.3 °F /  19.6 °C 55.9 °F /  13.3 °C 30in /  1015.2hPa NW 2mph /  3.2km/h 8mph /  12.9km/h 67% 0in /  0.0mm 332 W/m2
16:59 67.3 °F /  19.6 °C 55.9 °F /  13.3 °C 30in /  1015.2hPa West 2mph /  3.2km/h 2mph /  3.2km/h 67% 0in /  0.0mm 193 W/m2
17:04 67.1 °F /  19.5 °C 56.1 °F /  13.4 °C 30in /  1015.2hPa WNW 7mph /  11.3km/h 7mph /  11.3km/h 68% 0in /  0.0mm 171 W/m2
17:09 67.1 °F /  19.5 °C 56.1 °F /  13.4 °C 30in /  1015.2hPa ESE 2mph /  3.2km/h 7mph /  11.3km/h 68% 0in /  0.0mm 155 W/m2
17:14 66.9 °F /  19.4 °C 55.9 °F /  13.3 °C 30in /  1015.2hPa NNW 2mph /  3.2km/h 6mph /  9.7km/h 68% 0in /  0.0mm 167 W/m2
17:19 66.7 °F /  19.3 °C 55.8 °F /  13.2 °C 30in /  1015.2hPa West 0.9mph /  1.4km/h 5mph /  8km/h 68% 0in /  0.0mm 195 W/m2
17:24 66.7 °F /  19.3 °C 55.4 °F /  13 °C 30in /  1014.9hPa WNW 2mph /  3.2km/h 6mph /  9.7km/h 67% 0in /  0.0mm 274 W/m2
17:29 66.9 °F /  19.4 °C 55.9 °F /  13.3 °C 30in /  1014.9hPa South 2.9mph /  4.7km/h 4mph /  6.4km/h 68% 0in /  0.0mm 318 W/m2
17:34 67.5 °F /  19.7 °C 55.8 °F /  13.2 °C 30in /  1014.9hPa West 4mph /  6.4km/h 6mph /  9.7km/h 66% 0in /  0.0mm 241 W/m2
17:39 67.5 °F /  19.7 °C 56.1 °F /  13.4 °C 30in /  1014.9hPa ESE 0.9mph /  1.4km/h 6mph /  9.7km/h 67% 0in /  0.0mm 253 W/m2
17:44 67.8 °F /  19.9 °C 56.1 °F /  13.4 °C 30in /  1014.9hPa ESE 2.9mph /  4.7km/h 4mph /  6.4km/h 66% 0in /  0.0mm 538 W/m2
17:49 68.5 °F /  20.3 °C 56.3 °F /  13.5 °C 30in /  1014.9hPa ENE 2.9mph /  4.7km/h 9mph /  14.5km/h 65% 0in /  0.0mm 519 W/m2
17:54 68.5 °F /  20.3 °C 55.9 °F /  13.3 °C 30in /  1014.9hPa WNW 6.9mph /  11.1km/h 8mph /  12.9km/h 64% 0in /  0.0mm 179 W/m2
17:59 67.6 °F /  19.8 °C 55.4 °F /  13 °C 30in /  1014.9hPa West 0.9mph /  1.4km/h 9mph /  14.5km/h 65% 0in /  0.0mm 144 W/m2
18:04 66.9 °F /  19.4 °C 55.2 °F /  12.9 °C 30in /  1014.9hPa NE 2mph /  3.2km/h 8mph /  12.9km/h 66% 0in /  0.0mm 142 W/m2
18:09 66.6 °F /  19.2 °C 55.2 °F /  12.9 °C 30in /  1014.9hPa WNW 4mph /  6.4km/h 10mph /  16.1km/h 67% 0in /  0.0mm 144 W/m2
18:14 66.4 °F /  19.1 °C 55.6 °F /  13.1 °C 30in /  1014.9hPa WNW 0.9mph /  1.4km/h 4mph /  6.4km/h 68% 0in /  0.0mm 149 W/m2
18:19 66.4 °F /  19.1 °C 55.6 °F /  13.1 °C 30in /  1014.9hPa NW 0.9mph /  1.4km/h 5mph /  8km/h 68% 0in /  0.0mm 146 W/m2
18:25 66.4 °F /  19.1 °C 55.6 °F /  13.1 °C 30in /  1014.9hPa North 2.9mph /  4.7km/h 6mph /  9.7km/h 68% 0in /  0.0mm 128 W/m2
18:30 66.2 °F /  19 °C 55.4 °F /  13 °C 30in /  1014.9hPa NNW 2.9mph /  4.7km/h 8mph /  12.9km/h 68% 0in /  0.0mm 118 W/m2
18:35 66 °F /  18.9 °C 55.2 °F /  12.9 °C 30in /  1014.9hPa WNW 0.9mph /  1.4km/h 6mph /  9.7km/h 68% 0in /  0.0mm 98 W/m2
18:40 65.8 °F /  18.8 °C 55 °F /  12.8 °C 30in /  1014.9hPa NW 0.9mph /  1.4km/h 5mph /  8km/h 68% 0in /  0.0mm 81 W/m2
18:45 65.8 °F /  18.8 °C 55 °F /  12.8 °C 30in /  1015.2hPa NW 8.9mph /  14.3km/h 9mph /  14.5km/h 68% 0in /  0.0mm 81 W/m2
18:50 65.7 °F /  18.7 °C 54.9 °F /  12.7 °C 30in /  1015.2hPa NNW 2mph /  3.2km/h 3mph /  4.8km/h 68% 0in /  0.0mm 67 W/m2
18:55 65.8 °F /  18.8 °C 55 °F /  12.8 °C 30in /  1015.2hPa East 2mph /  3.2km/h 9mph /  14.5km/h 68% 0in /  0.0mm 74 W/m2
19:00 65.7 °F /  18.7 °C 54.9 °F /  12.7 °C 30in /  1015.2hPa ESE 2mph /  3.2km/h 7mph /  11.3km/h 68% 0in /  0.0mm 42 W/m2
19:05 65.3 °F /  18.5 °C 54.5 °F /  12.5 °C 30in /  1015.2hPa Calm   1mph /  1.6km/h 68% 0in /  0.0mm 23 W/m2
19:10 64.8 °F /  18.2 °C 54.3 °F /  12.4 °C 30in /  1015.2hPa SSE 0.9mph /  1.4km/h 6mph /  9.7km/h 69% 0in /  0.0mm 21 W/m2
19:15 64.4 °F /  18 °C 54 °F /  12.2 °C 30in /  1015.2hPa SE 2mph /  3.2km/h 2mph /  3.2km/h 69% 0in /  0.0mm 16 W/m2
19:20 64 °F /  17.8 °C 53.6 °F /  12 °C 30in /  1015.2hPa WSW 2mph /  3.2km/h 2mph /  3.2km/h 69% 0in /  0.0mm 12 W/m2
19:25 63.9 °F /  17.7 °C 53.4 °F /  11.9 °C 30in /  1015.2hPa Calm   1mph /  1.6km/h 69% 0in /  0.0mm 11 W/m2
19:31 63.7 °F /  17.6 °C 52.9 °F /  11.6 °C 30in /  1015.2hPa Calm   1mph /  1.6km/h 68% 0in /  0.0mm 7 W/m2
19:36 63.7 °F /  17.6 °C 53.2 °F /  11.8 °C 30in /  1015.2hPa NNE 0.9mph /  1.4km/h 1mph /  1.6km/h 69% 0in /  0.0mm 5 W/m2
19:41 63.3 °F /  17.4 °C 53.1 °F /  11.7 °C 30in /  1015.2hPa Calm   2mph /  3.2km/h 69% 0in /  0.0mm 0 W/m2
19:46 63.1 °F /  17.3 °C 53.6 °F /  12 °C 30in /  1015.6hPa Calm   3mph /  4.8km/h 71% 0in /  0.0mm 0 W/m2
19:51 63.1 °F /  17.3 °C 55.4 °F /  13 °C 30in /  1015.6hPa Calm     76% 0.01in /  0.2mm 0 W/m2
19:56 62.8 °F /  17.1 °C 56.1 °F /  13.4 °C 30in /  1015.6hPa Calm   2mph /  3.2km/h 79% 0.01in /  0.2mm 0 W/m2
20:01 62.1 °F /  16.7 °C 55.8 °F /  13.2 °C 30in /  1015.9hPa Calm     80% 0.02in /  0.5mm 0 W/m2
20:06 61.2 °F /  16.2 °C 55.6 °F /  13.1 °C 30in /  1015.9hPa Calm   1mph /  1.6km/h 82% 0.02in /  0.5mm 0 W/m2
20:11 60.6 °F /  15.9 °C 55.8 °F /  13.2 °C 30in /  1016.3hPa Calm   2mph /  3.2km/h 84% 0.02in /  0.5mm 0 W/m2
20:16 60.3 °F /  15.7 °C 56.1 °F /  13.4 °C 30in /  1016.3hPa Calm     86% 0.02in /  0.5mm 0 W/m2
20:21 59.9 °F /  15.5 °C 55.9 °F /  13.3 °C 30in /  1015.9hPa Calm   2mph /  3.2km/h 87% 0.02in /  0.5mm 0 W/m2
20:26 59.5 °F /  15.3 °C 55.6 °F /  13.1 °C 30in /  1016.3hPa NE 0.9mph /  1.4km/h 2mph /  3.2km/h 87% 0.03in /  0.8mm 0 W/m2
20:31 59.2 °F /  15.1 °C 55.4 °F /  13 °C 30in /  1016.3hPa Calm   2mph /  3.2km/h 87% 0.04in /  1.0mm 0 W/m2
20:36 59 °F /  15 °C 55.2 °F /  12.9 °C 30in /  1016.3hPa WSW 2mph /  3.2km/h 2mph /  3.2km/h 87% 0.05in /  1.3mm 0 W/m2
20:41 58.8 °F /  14.9 °C 55.2 °F /  12.9 °C 30in /  1016.3hPa West 2.9mph /  4.7km/h 3mph /  4.8km/h 88% 0.05in /  1.3mm 0 W/m2
20:46 58.6 °F /  14.8 °C 55.4 °F /  13 °C 30in /  1016.3hPa WNW 2mph /  3.2km/h 3mph /  4.8km/h 89% 0.06in /  1.5mm 0 W/m2
20:51 58.3 °F /  14.6 °C 55.4 °F /  13 °C 30in /  1016.3hPa WSW 2.9mph /  4.7km/h 4mph /  6.4km/h 90% 0.05in /  1.3mm 0 W/m2
20:56 58.1 °F /  14.5 °C 55.2 °F /  12.9 °C 30in /  1016.3hPa West 2.9mph /  4.7km/h 3mph /  4.8km/h 90% 0.05in /  1.3mm 0 W/m2
21:01 57.9 °F /  14.4 °C 55.2 °F /  12.9 °C 30in /  1016.3hPa West 0.9mph /  1.4km/h 1mph /  1.6km/h 91% 0.05in /  1.3mm 0 W/m2
21:06 57.7 °F /  14.3 °C 55.2 °F /  12.9 °C 30in /  1016.3hPa West 2mph /  3.2km/h 3mph /  4.8km/h 91% 0.05in /  1.3mm 0 W/m2
21:11 57.6 °F /  14.2 °C 55.2 °F /  12.9 °C 30in /  1016.3hPa West 2mph /  3.2km/h 3mph /  4.8km/h 92% 0.06in /  1.5mm 0 W/m2
21:16 57.6 °F /  14.2 °C 55.2 °F /  12.9 °C 30in /  1016.3hPa WNW 2mph /  3.2km/h 5mph /  8km/h 92% 0.06in /  1.5mm 0 W/m2
21:21 57.4 °F /  14.1 °C 55 °F /  12.8 °C 30in /  1016.3hPa West 2.9mph /  4.7km/h 5mph /  8km/h 92% 0.06in /  1.5mm 0 W/m2
21:26 57.4 °F /  14.1 °C 55 °F /  12.8 °C 30in /  1016.3hPa WSW 2.9mph /  4.7km/h 6mph /  9.7km/h 92% 0.05in /  1.3mm 0 W/m2
21:31 57.4 °F /  14.1 °C 55 °F /  12.8 °C 30in /  1016.3hPa WSW 2.9mph /  4.7km/h 5mph /  8km/h 92% 0.05in /  1.3mm 0 W/m2
21:36 57.4 °F /  14.1 °C 55 °F /  12.8 °C 30in /  1016.3hPa SW 2.9mph /  4.7km/h 4mph /  6.4km/h 92% 0.04in /  1.0mm 0 W/m2
21:41 57.2 °F /  14 °C 54.9 °F /  12.7 °C 30in /  1016.3hPa SSW 2.9mph /  4.7km/h 4mph /  6.4km/h 92% 0.04in /  1.0mm 0 W/m2
21:46 57.4 °F /  14.1 °C 55 °F /  12.8 °C 30in /  1016.3hPa West 2.9mph /  4.7km/h 5mph /  8km/h 92% 0.03in /  0.8mm 0 W/m2
21:51 57.2 °F /  14 °C 54.9 °F /  12.7 °C 30in /  1016.3hPa West 2mph /  3.2km/h 4mph /  6.4km/h 92% 0.03in /  0.8mm 0 W/m2
21:56 57.4 °F /  14.1 °C 55 °F /  12.8 °C 30in /  1016.3hPa WSW 4mph /  6.4km/h 5mph /  8km/h 92% 0.03in /  0.8mm 0 W/m2
22:01 57.4 °F /  14.1 °C 55 °F /  12.8 °C 30in /  1016.3hPa WSW 2mph /  3.2km/h 4mph /  6.4km/h 92% 0.02in /  0.5mm 0 W/m2
22:07 57.4 °F /  14.1 °C 55 °F /  12.8 °C 30in /  1016.3hPa WSW 2.9mph /  4.7km/h 5mph /  8km/h 92% 0.02in /  0.5mm 0 W/m2
22:12 57.4 °F /  14.1 °C 55 °F /  12.8 °C 30in /  1016.3hPa WSW 4mph /  6.4km/h 4mph /  6.4km/h 92% 0.02in /  0.5mm 0 W/m2
22:17 57.4 °F /  14.1 °C 55 °F /  12.8 °C 30in /  1016.3hPa West 2.9mph /  4.7km/h 4mph /  6.4km/h 92% 0.02in /  0.5mm 0 W/m2
22:22 57.4 °F /  14.1 °C 55 °F /  12.8 °C 30in /  1016.3hPa WSW 4mph /  6.4km/h 6mph /  9.7km/h 92% 0.01in /  0.2mm 0 W/m2
22:27 57.6 °F /  14.2 °C 55 °F /  12.8 °C 30in /  1016.3hPa SW 0.9mph /  1.4km/h 4mph /  6.4km/h 91% 0.01in /  0.2mm 0 W/m2
22:32 57.6 °F /  14.2 °C 55 °F /  12.8 °C 30in /  1016.3hPa West 2mph /  3.2km/h 4mph /  6.4km/h 91% 0in /  0.0mm 0 W/m2
22:37 57.6 °F /  14.2 °C 55 °F /  12.8 °C 30in /  1016.3hPa West 2mph /  3.2km/h 2mph /  3.2km/h 91% 0in /  0.0mm 0 W/m2
22:42 57.4 °F /  14.1 °C 54.9 °F /  12.7 °C 30in /  1016.3hPa WSW 2.9mph /  4.7km/h 4mph /  6.4km/h 91% 0in /  0.0mm 0 W/m2
22:47 57.4 °F /  14.1 °C 54.9 °F /  12.7 °C 30in /  1016.3hPa West 0.9mph /  1.4km/h 2mph /  3.2km/h 91% 0in /  0.0mm 0 W/m2
22:52 57.4 °F /  14.1 °C 54.9 °F /  12.7 °C 30in /  1016.3hPa Calm   2mph /  3.2km/h 91% 0in /  0.0mm 0 W/m2
22:57 57.4 °F /  14.1 °C 54.9 °F /  12.7 °C 30in /  1016.3hPa West 2mph /  3.2km/h 3mph /  4.8km/h 91% 0in /  0.0mm 0 W/m2
23:02 57.4 °F /  14.1 °C 54.9 °F /  12.7 °C 30in /  1016.3hPa West 0.9mph /  1.4km/h 2mph /  3.2km/h 91% 0in /  0.0mm 0 W/m2
23:07 57.2 °F /  14 °C 54.7 °F /  12.6 °C 30in /  1016.3hPa Calm   1mph /  1.6km/h 91% 0in /  0.0mm 0 W/m2
23:12 57.2 °F /  14 °C 54.7 °F /  12.6 °C 30in /  1016.3hPa Calm   1mph /  1.6km/h 91% 0in /  0.0mm 0 W/m2
23:17 57 °F /  13.9 °C 54.5 °F /  12.5 °C 30in /  1016.3hPa Calm     91% 0in /  0.0mm 0 W/m2
23:22 57 °F /  13.9 °C 54.5 °F /  12.5 °C 30in /  1016.3hPa West 0.9mph /  1.4km/h 2mph /  3.2km/h 91% 0in /  0.0mm 0 W/m2
23:27 56.8 °F /  13.8 °C 54.5 °F /  12.5 °C 30in /  1016.3hPa WSW 0.9mph /  1.4km/h 5mph /  8km/h 92% 0in /  0.0mm 0 W/m2
23:32 57 °F /  13.9 °C 54.5 °F /  12.5 °C 30in /  1016.3hPa NW 2.9mph /  4.7km/h 7mph /  11.3km/h 91% 0in /  0.0mm 0 W/m2
23:37 57.4 °F /  14.1 °C 54.9 °F /  12.7 °C 30in /  1016.6hPa SW 2.9mph /  4.7km/h 3mph /  4.8km/h 91% 0in /  0.0mm 0 W/m2
23:42 57.6 °F /  14.2 °C 54.7 °F /  12.6 °C 30in /  1016.6hPa WNW 2mph /  3.2km/h 6mph /  9.7km/h 90% 0in /  0.0mm 0 W/m2
23:47 57.9 °F /  14.4 °C 54.7 °F /  12.6 °C 30in /  1016.6hPa NW 4mph /  6.4km/h 5mph /  8km/h 89% 0in /  0.0mm 0 W/m2
23:52 57.7 °F /  14.3 °C 54.5 °F /  12.5 °C 30in /  1016.6hPa Calm   2mph /  3.2km/h 89% 0in /  0.0mm 0 W/m2
23:57 57.7 °F /  14.3 °C 54.5 °F /  12.5 °C 30in /  1016.6hPa Calm   2mph /  3.2km/h 89% 0in /  0.0mm 0 W/m2
Juneau County Weather
Compliments of Weather Underground - 4 mb